Fernando Correia

Chefscout - Tondela
17 Jul 2027
Samstag
Verarbeitung

Persönlichkeit

Anpassungsfähigkeit (6) Ehrgeiz (8) Kontroverse (1) Loyalität (1) Druck (9) Professionalität (10) Fairness (9) Temperament (12)

Profil

Trainerstil Demokratisch
Lizenz Kontinentale B
Entschlossenheit 12
Menschenführung 5
Motivation 11
Disziplin 7
Arbeitszufriedenheit
100%
Ermüdung
0%
Rolle Chefscout
Gehalt 58.3K p/W
Vertrag 14.03.2030

Leistung

Verhalten Gut
Trainingseffektivität
41%
Spielerentwicklung
20%
Verletzungsprävention
40%
Taktische Umsetzung
45%

Letzte Ereignisse

Nahm an einer Scouting-Besprechung teil jetzt
Nahm an einer Scouting-Besprechung teil 7T her
Nahm an einer Scouting-Besprechung teil 7T her
Nahm an einer Scouting-Besprechung teil 7T her
Nahm an einer Scouting-Besprechung teil 7T her
Nahm an einer Scouting-Besprechung teil 14T her
Nahm an einer Scouting-Besprechung teil 14T her
Nahm an einer Scouting-Besprechung teil 14T her

Aktuell beobachtet

133
Spieler Verein Status Fähigkeit Vertrauen Beobachtet Zuletzt beobachtet Letzte Stimme
Patrick Berg Borussia Mönchengladbach Bericht bereit 141 / 141 62% 1 01.06.2027 -
Ricardo Batista Casa Pia Aktiv 96 / 109 51% 1 01.06.2027 -
Miguel Figueiredo Benfica Aktiv 117 / 114 40% 2 31.05.2027 -
Aune Heggebø West Bromwich Albion Aktiv 126 / 120 40% 3 30.05.2027 -
João Simões Sporting CP Aktiv 134 / 139 40% 2 30.05.2027 -
Gonçalo Oliveira Benfica Aktiv 99 / 119 40% 2 30.05.2027 -
João Teixeira Porto Aktiv 95 / 124 40% 1 29.05.2027 -
Maeson King Blackpool Aktiv 104 / 111 40% 1 28.05.2027 -
Tyrese Campbell Sheffield United Aktiv 117 / 130 40% 2 26.05.2027 -
Eduardo Felicíssimo Sporting CP Aktiv 123 / 114 40% 4 25.05.2027 -
Kelly Saravanan Salford City Aktiv 112 / 111 40% 2 25.05.2027 -
Dom Ballard Leyton Orient Aktiv 129 / 124 40% 5 23.05.2027 -
Patrick Agyemang Derby County Aktiv 131 / 127 40% 2 23.05.2027 -
Daniel Banjaqui Wolverhampton Aktiv 113 / 128 40% 2 22.05.2027 -
Jonathan Bland Barnsley Aktiv 91 / 114 40% 3 21.05.2027 -
Riquelme Thompson-Jones Shrewsbury Town Aktiv 110 / 106 40% 2 21.05.2027 -
Moncef Zekri Sporting CP Aktiv 89 / 106 40% 1 20.05.2027 -
Charles De Ketelaere Atalanta Aktiv 166 / 151 40% 3 18.05.2027 -
Max Svensson Penafiel Aktiv 104 / 115 40% 2 16.05.2027 Mehr Infos nötig
Christian Saydee Wigan Athletic Aktiv 118 / 111 40% 1 16.05.2027 -
Kahiser Lenis Feirense Aktiv 104 / 123 40% 4 15.05.2027 -
Rodrigo Muniz Fulham Aktiv 142 / 131 40% 3 15.05.2027 -
Camilo Durán Bloemfontein Celtic Aktiv 105 / 129 40% 5 14.05.2027 -
Tiago Freitas Benfica Aktiv 123 / 120 40% 2 14.05.2027 -
Lamine Cissé Peterborough United Aktiv 116 / 115 40% 8 11.05.2027 -
Dávid Strelec Middlesbrough Aktiv 132 / 144 40% 2 11.05.2027 -
Biel La Equidad Aktiv 103 / 124 40% 1 11.05.2027 -
Leandro Martins Benfica Aktiv 83 / 91 40% 1 10.05.2027 -
Caleb Yirenkyi Coventry City Aktiv 129 / 136 40% 1 10.05.2027 -
Aidomo Emakhu Oxford United Aktiv 125 / 120 40% 2 07.05.2027 -
Bakary Haïdara Hearts of Oak Aktiv 110 / 117 40% 1 07.05.2027 -
Iwan Morgan Grimsby Town Aktiv 104 / 112 40% 3 06.05.2027 -
Cameron Archer Southampton Aktiv 137 / 125 40% 4 04.05.2027 -
Ilyas Ansah Hull City Aktiv 123 / 142 40% 1 03.05.2027 -
Vitinha Genoa Aktiv 122 / 136 40% 1 02.05.2027 -
Korede Osundina Casa Pia Aktiv 113 / 119 40% 1 30.04.2027 -
Gladson Sulemana Liberty Professionals Aktiv 94 / 100 40% 1 29.04.2027 -
Jay Stansfield Birmingham Aktiv 120 / 122 40% 1 27.04.2027 -
Vinícius Lopes Santa Clara Aktiv 116 / 119 40% 1 25.04.2027 -
Jonny Arriba Chesterfield Aktiv 95 / 107 40% 2 23.04.2027 -
Dale Taylor Blackpool Aktiv 108 / 107 40% 3 23.04.2027 -
Rumarn Burrell Queens Park Rangers Aktiv 130 / 119 40% 2 21.04.2027 -
Jovon Makama Norwich City Aktiv 123 / 122 40% 2 21.04.2027 -
Jalen Blesa Rio Ave Aktiv 134 / 123 40% 3 18.04.2027 -
Yousef Salech Cardiff City Aktiv 125 / 131 40% 3 17.04.2027 -
Bastien Meupiyou Alverca Aktiv 125 / 118 40% 1 16.04.2027 -
Sam Curtis Swindon Town Aktiv 92 / 109 40% 1 16.04.2027 -
Yanis Begraoui Estoril Praia Aktiv 146 / 128 40% 3 12.04.2027 -
Luther Tau SuperSport United Aktiv 93 / 106 40% 2 08.04.2027 -
Gustavo Silva Vitoria Guimaraes Aktiv 119 / 121 40% 3 07.04.2027 -
Martín Tejón Maritimo Aktiv 108 / 116 40% 1 02.04.2027 -
Figueiredo Alverca Aktiv 142 / 131 40% 1 01.04.2027 -
Dylan Nandín Arouca Aktiv 125 / 115 40% 1 31.03.2027 -
Etiosa Ighodaro Kaizer Chiefs Aktiv 121 / 98 40% 2 29.03.2027 -
Bertuğ Yıldırım Basaksehir Aktiv 142 / 123 40% 2 26.03.2027 -
Nathan Fogaça Fortaleza Aktiv 117 / 118 40% 1 25.03.2027 -
Dawda Camara Alverca Aktiv 133 / 115 40% 1 22.03.2027 -
Abu Kamara Portsmouth Aktiv 107 / 120 40% 1 21.03.2027 -
Leandro Antonetti Estrela da Amadora Aktiv 102 / 101 40% 1 15.03.2027 -
Joe Gelhardt Hull City Aktiv 127 / 124 40% 1 14.03.2027 -
Fábio Carvalho Brentford Aktiv 140 / 145 40% 1 12.03.2027 -
Bryan Limbombe Maritimo Aktiv 108 / 103 40% 1 07.03.2027 -
Vivaldo Semedo Watford Aktiv 108 / 121 40% 2 18.01.2027 -
Francisco Moura Penafiel Aktiv 132 / 139 40% 1 11.01.2027 -
Amar Memić Juventude Verhandlung 127 / 128 62% 1 01.01.2027 -
Thulani Billiat Utrecht Verhandlung 136 / 136 61% 1 01.01.2027 -
Adrian Dragusin CFR Cluj Verhandlung 141 / 142 63% 1 01.01.2027 -
Mao Hosoya Manchester City Verhandlung 134 / 135 67% 1 01.01.2027 -
Matías Fernández-Pardo Newcastle United Aktiv 148 / 139 40% 2 29.12.2026 -
Assane Diao Como Aktiv 154 / 149 40% 2 28.12.2026 -
Ole Pohlmann Rio Ave Aktiv 120 / 130 40% 1 28.12.2026 -
Rafik Guitane Estoril Praia Aktiv 131 / 124 40% 1 28.12.2026 -
Sorba Thomas Stoke City Aktiv 141 / 125 40% 1 27.12.2026 -
Toni Tamarit Alverca Aktiv 112 / 112 40% 2 25.12.2026 -
Rodrigo Ribeiro Werder Bremen Aktiv 133 / 117 40% 3 21.12.2026 -
Oumar Camara Vitoria Guimaraes Aktiv 111 / 130 40% 1 20.12.2026 -
George Brown Sheffield Wednesday Aktiv 93 / 106 40% 2 18.12.2026 -
Pepê Fermino Santos Aktiv 79 / 105 40% 1 17.12.2026 -
Emile Smith Rowe Fulham Aktiv 156 / 150 40% 1 17.12.2026 -
Carlos Vicente Udinese Aktiv 139 / 132 40% 1 16.12.2026 -
Diego Minete Vasco da Gama Aktiv 87 / 97 40% 1 15.12.2026 -
Enzo Le Fée Sunderland Aktiv 136 / 131 40% 1 14.12.2026 -
Paulo Moreira Aston Villa Aktiv 131 / 130 40% 1 14.12.2026 -
Tyler Adams Bournemouth Aktiv 143 / 151 40% 1 13.12.2026 -
Daniel Júnior Nacional Aktiv 111 / 118 40% 1 11.12.2026 -
Danilo Veiga Lecce Aktiv 137 / 126 40% 1 11.12.2026 -
Mathis Jangeal Famalicao Aktiv 82 / 103 40% 1 08.12.2026 -
Lukas Zuccarello Vasco da Gama Aktiv 88 / 98 40% 1 08.12.2026 -
Rúben Vinagre Legia Aktiv 118 / 121 40% 1 08.12.2026 -
Matheus Bahia Internacional Aktiv 121 / 118 40% 1 08.12.2026 -
Gustavo Ferreira Benfica Aktiv 84 / 82 67% 1 06.12.2026 -
Néiser Villarreal Cruzeiro Aktiv 98 / 113 40% 3 04.12.2026 -
Fábio Jaló Barnsley Aktiv 99 / 91 40% 1 03.12.2026 -
Francisco Vitória Aktiv 82 / 77 40% 1 02.12.2026 -
Thierry Henry Sport Recife Aktiv 66 / 78 40% 1 01.12.2026 -
Rodrigo Cezar Santos Aktiv 83 / 105 40% 1 30.11.2026 -
Arthur Maron São Paulo Aktiv 86 / 105 40% 2 28.11.2026 -
Chemsdine Talbi Sunderland Aktiv 138 / 144 40% 1 25.11.2026 -
David Da Costa Portland Timbers Aktiv 135 / 137 40% 2 24.11.2026 -
Dinis Pinto Moreirense Aktiv 138 / 127 40% 2 23.11.2026 -
Roberto Fernández Braga Aktiv 140 / 144 40% 2 22.11.2026 Mehr Infos nötig
Yuri Leles Bragantino Aktiv 104 / 99 40% 1 20.11.2026 -
Louback Atlético Mineiro Aktiv 80 / 102 40% 1 20.11.2026 -
Gabriel Silva Braga Aktiv 141 / 127 40% 1 18.11.2026 -
Pau Víctor Estrela da Amadora Aktiv 145 / 131 40% 2 17.11.2026 -
Santi García Gil Vicente Aktiv 140 / 138 40% 1 17.11.2026 -
Enzo Loiodice KAA Gent Aktiv 136 / 120 40% 1 16.11.2026 -
Pedro Neto Chelsea Aktiv 148 / 136 40% 1 14.11.2026 -
Lee Hyun-Ju Arouca Aktiv 117 / 126 40% 1 13.11.2026 -
Noni Madueke Arsenal Aktiv 166 / 147 40% 1 12.11.2026 -
Jordan van der Gaag Leiria Aktiv 117 / 116 40% 1 11.11.2026 -
Relebohile Mofokeng Orlando Pirates Aktiv 114 / 132 40% 1 11.11.2026 -
Nuno Santos Mamelodi Sundowns Aktiv 120 / 119 40% 1 09.11.2026 -
Florentino Luís Ipswich Town Aktiv 150 / 134 40% 1 09.11.2026 -
Savinho Tottenham Aktiv 163 / 155 40% 3 06.11.2026 -
Enzo Barrenechea Burnley Aktiv 149 / 144 40% 1 06.11.2026 -
Jonas Wind Braga Aktiv 138 / 128 40% 1 04.11.2026 -
Bright Arrey-Mbi Braga Aktiv 141 / 127 40% 1 04.11.2026 -
Jacob Greaves Ipswich Town Aktiv 131 / 136 40% 1 04.11.2026 -
Igor Felisberto Sport Recife Aktiv 103 / 96 40% 1 16.10.2026 -
Octávio Criciuma Aktiv 91 / 92 40% 1 15.10.2026 -
Eric Atlético Mineiro Aktiv 81 / 87 40% 1 13.10.2026 -
Jacaré Corinthians Aktiv 81 / 103 40% 1 11.10.2026 -
Thiaguinho Criciuma Aktiv 76 / 84 40% 1 11.10.2026 -
Dedé São Paulo Aktiv 83 / 104 40% 2 10.10.2026 -
Benedetti Palmeiras Aktiv 97 / 106 40% 1 10.10.2026 -
Emerson Buiu Vitória Aktiv 84 / 95 40% 1 05.10.2026 -
Júlio Fidelis Fluminense Aktiv 104 / 104 40% 1 05.10.2026 -
Mathias De Amorim Famalicao Aktiv 138 / 135 40% 1 31.08.2026 -
Victor Froholdt Porto Aktiv 137 / 167 40% 1 11.08.2026 -
Rafael Lima Bragantino Aktiv 81 / 93 40% 1 11.08.2026 -
Gonçalo Moreira Benfica Aktiv 126 / 122 48% 1 03.08.2026 -
Breel Embolo Atlanta United FC Aktiv 130 / 123 40% 1 01.08.2026 -